sensor_id;sensor_type;location;lat;lon;timestamp;pressure;altitude;pressure_sealevel;temperature
76583;BMP280;65462;52.148;7.940;2023-05-07T00:00:08;100903.38;;;15.81
76583;BMP280;65462;52.148;7.940;2023-05-07T00:02:34;100914.03;;;15.81
76583;BMP280;65462;52.148;7.940;2023-05-07T00:04:59;100907.88;;;15.77
76583;BMP280;65462;52.148;7.940;2023-05-07T00:07:24;100904.06;;;15.78
76583;BMP280;65462;52.148;7.940;2023-05-07T00:09:50;100904.78;;;15.75
76583;BMP280;65462;52.148;7.940;2023-05-07T00:12:15;100905.13;;;15.73
76583;BMP280;65462;52.148;7.940;2023-05-07T00:14:41;100897.38;;;15.68
76583;BMP280;65462;52.148;7.940;2023-05-07T00:17:06;100900.44;;;15.66
76583;BMP280;65462;52.148;7.940;2023-05-07T00:19:32;100909.53;;;15.65
76583;BMP280;65462;52.148;7.940;2023-05-07T00:21:57;100903.00;;;15.63
76583;BMP280;65462;52.148;7.940;2023-05-07T00:24:23;100899.16;;;15.60
76583;BMP280;65462;52.148;7.940;2023-05-07T00:26:49;100898.00;;;15.61
76583;BMP280;65462;52.148;7.940;2023-05-07T00:29:14;100894.16;;;15.59
76583;BMP280;65462;52.148;7.940;2023-05-07T00:31:39;100894.44;;;15.54
76583;BMP280;65462;52.148;7.940;2023-05-07T00:34:05;100901.19;;;15.51
76583;BMP280;65462;52.148;7.940;2023-05-07T00:36:30;100898.53;;;15.51
76583;BMP280;65462;52.148;7.940;2023-05-07T00:38:56;100901.19;;;15.51
76583;BMP280;65462;52.148;7.940;2023-05-07T00:41:21;100903.81;;;15.48
76583;BMP280;65462;52.148;7.940;2023-05-07T00:43:47;100908.34;;;15.47
76583;BMP280;65462;52.148;7.940;2023-05-07T00:46:13;100912.44;;;15.45
76583;BMP280;65462;52.148;7.940;2023-05-07T00:48:38;100923.06;;;15.41
76583;BMP280;65462;52.148;7.940;2023-05-07T00:51:04;100917.28;;;15.39
76583;BMP280;65462;52.148;7.940;2023-05-07T00:53:30;100908.44;;;15.35
76583;BMP280;65462;52.148;7.940;2023-05-07T00:55:55;100906.03;;;15.30
76583;BMP280;65462;52.148;7.940;2023-05-07T00:58:21;100907.59;;;15.31
76583;BMP280;65462;52.148;7.940;2023-05-07T01:00:46;100911.38;;;15.30
76583;BMP280;65462;52.148;7.940;2023-05-07T01:03:12;100912.47;;;15.29
76583;BMP280;65462;52.148;7.940;2023-05-07T01:05:37;100910.50;;;15.26
76583;BMP280;65462;52.148;7.940;2023-05-07T01:08:04;100907.06;;;15.26
76583;BMP280;65462;52.148;7.940;2023-05-07T01:10:30;100911.56;;;15.22
76583;BMP280;65462;52.148;7.940;2023-05-07T01:12:57;100917.88;;;15.17
76583;BMP280;65462;52.148;7.940;2023-05-07T01:15:22;100919.78;;;15.17
76583;BMP280;65462;52.148;7.940;2023-05-07T01:17:48;100918.56;;;15.14
76583;BMP280;65462;52.148;7.940;2023-05-07T01:20:13;100914.28;;;15.10
76583;BMP280;65462;52.148;7.940;2023-05-07T01:22:39;100916.19;;;15.09
76583;BMP280;65462;52.148;7.940;2023-05-07T01:25:06;100909.63;;;15.07
76583;BMP280;65462;52.148;7.940;2023-05-07T01:27:32;100908.84;;;15.06
76583;BMP280;65462;52.148;7.940;2023-05-07T01:29:59;100904.69;;;15.05
76583;BMP280;65462;52.148;7.940;2023-05-07T01:32:36;100898.38;;;14.98
76583;BMP280;65462;52.148;7.940;2023-05-07T01:35:05;100901.41;;;14.96
76583;BMP280;65462;52.148;7.940;2023-05-07T01:37:31;100904.38;;;14.95
76583;BMP280;65462;52.148;7.940;2023-05-07T01:39:57;100895.53;;;14.91
76583;BMP280;65462;52.148;7.940;2023-05-07T01:42:22;100910.31;;;14.88
76583;BMP280;65462;52.148;7.940;2023-05-07T01:44:48;100912.53;;;14.86
76583;BMP280;65462;52.148;7.940;2023-05-07T01:47:14;100914.34;;;14.82
76583;BMP280;65462;52.148;7.940;2023-05-07T01:49:39;100911.25;;;14.80
76583;BMP280;65462;52.148;7.940;2023-05-07T01:52:05;100907.03;;;14.79
76583;BMP280;65462;52.148;7.940;2023-05-07T01:54:30;100902.50;;;14.79
76583;BMP280;65462;52.148;7.940;2023-05-07T01:56:56;100898.66;;;14.77
76583;BMP280;65462;52.148;7.940;2023-05-07T01:59:22;100914.59;;;14.77
76583;BMP280;65462;52.148;7.940;2023-05-07T02:01:47;100908.03;;;14.74
76583;BMP280;65462;52.148;7.940;2023-05-07T02:04:13;100903.06;;;14.73
76583;BMP280;65462;52.148;7.940;2023-05-07T02:06:38;100908.72;;;14.71
76583;BMP280;65462;52.148;7.940;2023-05-07T02:09:03;100909.09;;;14.70
76583;BMP280;65462;52.148;7.940;2023-05-07T02:11:28;100908.63;;;14.68
76583;BMP280;65462;52.148;7.940;2023-05-07T02:13:54;100908.63;;;14.68
76583;BMP280;65462;52.148;7.940;2023-05-07T02:16:19;100907.88;;;14.67
76583;BMP280;65462;52.148;7.940;2023-05-07T02:18:45;100897.56;;;14.66
76583;BMP280;65462;52.148;7.940;2023-05-07T02:21:10;100901.34;;;14.65
76583;BMP280;65462;52.148;7.940;2023-05-07T02:23:35;100897.47;;;14.62
76583;BMP280;65462;52.148;7.940;2023-05-07T02:26:01;100900.47;;;14.61
76583;BMP280;65462;52.148;7.940;2023-05-07T02:28:26;100900.03;;;14.59
76583;BMP280;65462;52.148;7.940;2023-05-07T02:30:52;100902.69;;;14.59
76583;BMP280;65462;52.148;7.940;2023-05-07T02:33:17;100898.47;;;14.58
76583;BMP280;65462;52.148;7.940;2023-05-07T02:35:42;100908.69;;;14.56
76583;BMP280;65462;52.148;7.940;2023-05-07T02:38:08;100909.38;;;14.53
76583;BMP280;65462;52.148;7.940;2023-05-07T02:40:35;100911.59;;;14.51
76583;BMP280;65462;52.148;7.940;2023-05-07T02:43:03;100907.69;;;14.48
76583;BMP280;65462;52.148;7.940;2023-05-07T02:45:29;100908.06;;;14.47
76583;BMP280;65462;52.148;7.940;2023-05-07T02:47:54;100907.63;;;14.45
76583;BMP280;65462;52.148;7.940;2023-05-07T02:50:20;100909.84;;;14.43
76583;BMP280;65462;52.148;7.940;2023-05-07T02:52:45;100914.06;;;14.44
76583;BMP280;65462;52.148;7.940;2023-05-07T02:55:10;100915.53;;;14.41
76583;BMP280;65462;52.148;7.940;2023-05-07T02:57:36;100906.00;;;14.40
76583;BMP280;65462;52.148;7.940;2023-05-07T03:02:37;100904.00;;;14.37
76583;BMP280;65462;52.148;7.940;2023-05-07T03:05:03;100914.97;;;14.36
76583;BMP280;65462;52.148;7.940;2023-05-07T03:07:28;100910.78;;;14.35
76583;BMP280;65462;52.148;7.940;2023-05-07T03:09:53;100911.44;;;14.32
76583;BMP280;65462;52.148;7.940;2023-05-07T03:12:19;100906.81;;;14.29
76583;BMP280;65462;52.148;7.940;2023-05-07T03:14:45;100902.13;;;14.26
76583;BMP280;65462;52.148;7.940;2023-05-07T03:17:10;100913.13;;;14.24
76583;BMP280;65462;52.148;7.940;2023-05-07T03:19:35;100905.47;;;14.23
76583;BMP280;65462;52.148;7.940;2023-05-07T03:22:01;100904.72;;;14.22
76583;BMP280;65462;52.148;7.940;2023-05-07T03:24:26;100902.28;;;14.17
76583;BMP280;65462;52.148;7.940;2023-05-07T03:26:51;100904.94;;;14.17
76583;BMP280;65462;52.148;7.940;2023-05-07T03:29:17;100903.28;;;14.13
76583;BMP280;65462;52.148;7.940;2023-05-07T03:31:42;100894.88;;;14.11
76583;BMP280;65462;52.148;7.940;2023-05-07T03:34:07;100901.75;;;14.12
76583;BMP280;65462;52.148;7.940;2023-05-07T03:36:33;100899.28;;;14.06
76583;BMP280;65462;52.148;7.940;2023-05-07T03:38:58;100900.44;;;14.06
76583;BMP280;65462;52.148;7.940;2023-05-07T03:41:23;100900.44;;;14.06
76583;BMP280;65462;52.148;7.940;2023-05-07T03:43:49;100904.84;;;14.01
76583;BMP280;65462;52.148;7.940;2023-05-07T03:46:14;100899.13;;;13.99
76583;BMP280;65462;52.148;7.940;2023-05-07T03:48:39;100909.28;;;13.97
76583;BMP280;65462;52.148;7.940;2023-05-07T03:51:04;100913.06;;;13.96
76583;BMP280;65462;52.148;7.940;2023-05-07T03:53:30;100907.28;;;13.94
76583;BMP280;65462;52.148;7.940;2023-05-07T03:55:55;100908.41;;;13.93
76583;BMP280;65462;52.148;7.940;2023-05-07T03:58:20;100919.69;;;13.90
76583;BMP280;65462;52.148;7.940;2023-05-07T04:00:45;100920.47;;;13.91
76583;BMP280;65462;52.148;7.940;2023-05-07T04:03:11;100922.69;;;13.89
76583;BMP280;65462;52.148;7.940;2023-05-07T04:05:36;100925.69;;;13.87
76583;BMP280;65462;52.148;7.940;2023-05-07T04:08:01;100930.56;;;13.85
76583;BMP280;65462;52.148;7.940;2023-05-07T04:10:29;100937.75;;;13.85
76583;BMP280;65462;52.148;7.940;2023-05-07T04:12:54;100934.31;;;13.84
76583;BMP280;65462;52.148;7.940;2023-05-07T04:15:20;100932.00;;;13.83
76583;BMP280;65462;52.148;7.940;2023-05-07T04:17:45;100939.31;;;13.86
76583;BMP280;65462;52.148;7.940;2023-05-07T04:20:14;100932.44;;;13.85
76583;BMP280;65462;52.148;7.940;2023-05-07T04:22:40;100943.16;;;13.88
76583;BMP280;65462;52.148;7.940;2023-05-07T04:25:05;100942.41;;;13.88
76583;BMP280;65462;52.148;7.940;2023-05-07T04:27:31;100941.63;;;13.87
76583;BMP280;65462;52.148;7.940;2023-05-07T04:29:57;100932.44;;;13.85
76583;BMP280;65462;52.148;7.940;2023-05-07T04:32:22;100930.34;;;13.78
76583;BMP280;65462;52.148;7.940;2023-05-07T04:34:50;100936.13;;;13.80
76583;BMP280;65462;52.148;7.940;2023-05-07T04:37:15;100938.00;;;13.80
76583;BMP280;65462;52.148;7.940;2023-05-07T04:39:40;100933.00;;;13.78
76583;BMP280;65462;52.148;7.940;2023-05-07T04:42:05;100931.44;;;13.77
76583;BMP280;65462;52.148;7.940;2023-05-07T04:44:33;100933.00;;;13.78
76583;BMP280;65462;52.148;7.940;2023-05-07T04:46:59;100931.03;;;13.75
76583;BMP280;65462;52.148;7.940;2023-05-07T04:49:25;100935.22;;;13.76
76583;BMP280;65462;52.148;7.940;2023-05-07T04:51:50;100931.78;;;13.76
76583;BMP280;65462;52.148;7.940;2023-05-07T04:54:16;100938.22;;;13.75
76583;BMP280;65462;52.148;7.940;2023-05-07T04:56:41;100936.34;;;13.75
76583;BMP280;65462;52.148;7.940;2023-05-07T04:59:06;100941.53;;;13.72
76583;BMP280;65462;52.148;7.940;2023-05-07T05:01:31;100942.00;;;13.74
76583;BMP280;65462;52.148;7.940;2023-05-07T05:03:57;100947.63;;;13.72
76583;BMP280;65462;52.148;7.940;2023-05-07T05:06:22;100948.84;;;13.75
76583;BMP280;65462;52.148;7.940;2023-05-07T05:08:47;100947.63;;;13.72
76583;BMP280;65462;52.148;7.940;2023-05-07T05:11:13;100948.41;;;13.73
76583;BMP280;65462;52.148;7.940;2023-05-07T05:13:38;100947.72;;;13.76
76583;BMP280;65462;52.148;7.940;2023-05-07T05:16:03;100949.63;;;13.75
76583;BMP280;65462;52.148;7.940;2023-05-07T05:18:29;100951.16;;;13.76
76583;BMP280;65462;52.148;7.940;2023-05-07T05:20:54;100953.47;;;13.78
76583;BMP280;65462;52.148;7.940;2023-05-07T05:23:20;100948.84;;;13.75
76583;BMP280;65462;52.148;7.940;2023-05-07T05:25:45;100956.13;;;13.78
76583;BMP280;65462;52.148;7.940;2023-05-07T05:28:10;100949.41;;;13.80
76583;BMP280;65462;52.148;7.940;2023-05-07T05:30:36;100958.47;;;13.79
76583;BMP280;65462;52.148;7.940;2023-05-07T05:33:01;100965.00;;;13.82
76583;BMP280;65462;52.148;7.940;2023-05-07T05:35:26;100958.22;;;13.84
76583;BMP280;65462;52.148;7.940;2023-05-07T05:37:52;100958.22;;;13.84
76583;BMP280;65462;52.148;7.940;2023-05-07T05:40:17;100966.97;;;13.85
76583;BMP280;65462;52.148;7.940;2023-05-07T05:42:42;100969.75;;;13.88
76583;BMP280;65462;52.148;7.940;2023-05-07T05:45:08;100971.97;;;13.86
76583;BMP280;65462;52.148;7.940;2023-05-07T05:47:33;100968.66;;;13.89
76583;BMP280;65462;52.148;7.940;2023-05-07T05:49:59;100972.09;;;13.90
76583;BMP280;65462;52.148;7.940;2023-05-07T05:52:24;100970.66;;;13.92
76583;BMP280;65462;52.148;7.940;2023-05-07T05:54:50;100975.97;;;13.92
76583;BMP280;65462;52.148;7.940;2023-05-07T05:57:15;100971.06;;;13.94
76583;BMP280;65462;52.148;7.940;2023-05-07T05:59:40;100968.53;;;13.98
76583;BMP280;65462;52.148;7.940;2023-05-07T06:02:06;100969.31;;;13.98
76583;BMP280;65462;52.148;7.940;2023-05-07T06:04:31;100971.63;;;14.00
76583;BMP280;65462;52.148;7.940;2023-05-07T06:06:57;100973.28;;;14.04
76583;BMP280;65462;52.148;7.940;2023-05-07T06:09:22;100972.59;;;14.07
76583;BMP280;65462;52.148;7.940;2023-05-07T06:11:47;100976.50;;;14.10
76583;BMP280;65462;52.148;7.940;2023-05-07T06:14:12;100975.06;;;14.13
76583;BMP280;65462;52.148;7.940;2023-05-07T06:16:38;100976.72;;;14.17
76583;BMP280;65462;52.148;7.940;2023-05-07T06:19:03;100977.91;;;14.20
76583;BMP280;65462;52.148;7.940;2023-05-07T06:21:28;100990.53;;;14.23
76583;BMP280;65462;52.148;7.940;2023-05-07T06:23:54;100993.75;;;14.28
76583;BMP280;65462;52.148;7.940;2023-05-07T06:26:20;101002.94;;;14.31
76583;BMP280;65462;52.148;7.940;2023-05-07T06:28:45;100986.75;;;14.36
76583;BMP280;65462;52.148;7.940;2023-05-07T06:31:15;100998.72;;;14.42
76583;BMP280;65462;52.148;7.940;2023-05-07T06:33:43;100993.06;;;14.43
76583;BMP280;65462;52.148;7.940;2023-05-07T06:36:08;100998.91;;;14.49
76583;BMP280;65462;52.148;7.940;2023-05-07T06:38:33;101003.66;;;14.55
76583;BMP280;65462;52.148;7.940;2023-05-07T06:40:59;100996.56;;;14.59
76583;BMP280;65462;52.148;7.940;2023-05-07T06:43:24;100997.44;;;14.63
76583;BMP280;65462;52.148;7.940;2023-05-07T06:45:49;100992.13;;;14.63
76583;BMP280;65462;52.148;7.940;2023-05-07T06:48:14;100993.44;;;14.69
76583;BMP280;65462;52.148;7.940;2023-05-07T06:50:41;100996.63;;;14.75
76583;BMP280;65462;52.148;7.940;2023-05-07T06:53:06;101004.03;;;14.81
76583;BMP280;65462;52.148;7.940;2023-05-07T06:55:32;101006.13;;;14.88
76583;BMP280;65462;52.148;7.940;2023-05-07T06:57:57;101001.31;;;14.94
76583;BMP280;65462;52.148;7.940;2023-05-07T07:00:26;101014.03;;;15.00
76583;BMP280;65462;52.148;7.940;2023-05-07T07:02:51;101011.56;;;15.07
76583;BMP280;65462;52.148;7.940;2023-05-07T07:05:16;101011.75;;;15.14
76583;BMP280;65462;52.148;7.940;2023-05-07T07:07:41;101019.94;;;15.21
76583;BMP280;65462;52.148;7.940;2023-05-07T07:10:07;101026.97;;;15.29
76583;BMP280;65462;52.148;7.940;2023-05-07T07:12:32;101025.59;;;15.35
76583;BMP280;65462;52.148;7.940;2023-05-07T07:14:58;101032.25;;;15.41
76583;BMP280;65462;52.148;7.940;2023-05-07T07:17:23;101029.66;;;15.45
76583;BMP280;65462;52.148;7.940;2023-05-07T07:19:48;101032.84;;;15.50
76583;BMP280;65462;52.148;7.940;2023-05-07T07:22:14;101032.97;;;15.54
76583;BMP280;65462;52.148;7.940;2023-05-07T07:24:39;101041.03;;;15.57
76583;BMP280;65462;52.148;7.940;2023-05-07T07:27:04;101044.53;;;15.61
76583;BMP280;65462;52.148;7.940;2023-05-07T07:29:30;101034.75;;;15.65
76583;BMP280;65462;52.148;7.940;2023-05-07T07:31:56;101031.41;;;15.68
76583;BMP280;65462;52.148;7.940;2023-05-07T07:34:21;101029.59;;;15.73
76583;BMP280;65462;52.148;7.940;2023-05-07T07:36:46;101032.38;;;15.76
76583;BMP280;65462;52.148;7.940;2023-05-07T07:39:12;101025.97;;;15.81
76583;BMP280;65462;52.148;7.940;2023-05-07T07:41:37;101027.09;;;15.80
76583;BMP280;65462;52.148;7.940;2023-05-07T07:44:03;101038.78;;;15.91
76583;BMP280;65462;52.148;7.940;2023-05-07T07:46:29;101035.41;;;15.94
76583;BMP280;65462;52.148;7.940;2023-05-07T07:48:54;101030.97;;;15.98
76583;BMP280;65462;52.148;7.940;2023-05-07T07:51:20;101027.59;;;16.01
76583;BMP280;65462;52.148;7.940;2023-05-07T07:53:45;101034.19;;;16.07
76583;BMP280;65462;52.148;7.940;2023-05-07T07:56:10;101046.50;;;16.11
76583;BMP280;65462;52.148;7.940;2023-05-07T07:58:37;101041.25;;;16.15
76583;BMP280;65462;52.148;7.940;2023-05-07T08:01:03;101041.75;;;16.20
76583;BMP280;65462;52.148;7.940;2023-05-07T08:03:28;101040.63;;;16.21
76583;BMP280;65462;52.148;7.940;2023-05-07T08:05:56;101038.41;;;16.23
76583;BMP280;65462;52.148;7.940;2023-05-07T08:08:22;101051.03;;;16.26
76583;BMP280;65462;52.148;7.940;2023-05-07T08:10:47;101043.47;;;16.28
76583;BMP280;65462;52.148;7.940;2023-05-07T08:13:15;101038.19;;;16.32
76583;BMP280;65462;52.148;7.940;2023-05-07T08:15:40;101037.84;;;16.33
76583;BMP280;65462;52.148;7.940;2023-05-07T08:18:05;101042.47;;;16.36
76583;BMP280;65462;52.148;7.940;2023-05-07T08:20:31;101027.69;;;16.39
76583;BMP280;65462;52.148;7.940;2023-05-07T08:22:56;101028.09;;;16.41
76583;BMP280;65462;52.148;7.940;2023-05-07T08:25:21;101027.47;;;16.47
76583;BMP280;65462;52.148;7.940;2023-05-07T08:27:47;101032.47;;;16.49
76583;BMP280;65462;52.148;7.940;2023-05-07T08:30:12;101041.31;;;16.53
76583;BMP280;65462;52.148;7.940;2023-05-07T08:32:38;101035.63;;;16.54
76583;BMP280;65462;52.148;7.940;2023-05-07T08:35:04;101039.97;;;16.63
76583;BMP280;65462;52.148;7.940;2023-05-07T08:37:29;101036.19;;;16.64
76583;BMP280;65462;52.148;7.940;2023-05-07T08:39:54;101034.09;;;16.73
76583;BMP280;65462;52.148;7.940;2023-05-07T08:42:20;101038.03;;;16.79
76583;BMP280;65462;52.148;7.940;2023-05-07T08:44:50;101025.94;;;16.85
76583;BMP280;65462;52.148;7.940;2023-05-07T08:47:18;101031.34;;;16.88
76583;BMP280;65462;52.148;7.940;2023-05-07T08:49:44;101039.81;;;16.94
76583;BMP280;65462;52.148;7.940;2023-05-07T08:52:12;101044.13;;;16.98
76583;BMP280;65462;52.148;7.940;2023-05-07T08:54:37;101047.69;;;17.06
76583;BMP280;65462;52.148;7.940;2023-05-07T08:57:03;101053.94;;;17.13
76583;BMP280;65462;52.148;7.940;2023-05-07T08:59:28;101047.16;;;17.19
76583;BMP280;65462;52.148;7.940;2023-05-07T09:01:53;101054.97;;;17.28
76583;BMP280;65462;52.148;7.940;2023-05-07T09:04:19;101051.28;;;17.36
76583;BMP280;65462;52.148;7.940;2023-05-07T09:06:44;101050.75;;;17.50
76583;BMP280;65462;52.148;7.940;2023-05-07T09:09:14;101051.66;;;17.61
76583;BMP280;65462;52.148;7.940;2023-05-07T09:11:39;101048.06;;;17.72
76583;BMP280;65462;52.148;7.940;2023-05-07T09:14:05;101045.56;;;17.83
76583;BMP280;65462;52.148;7.940;2023-05-07T09:16:30;101052.19;;;17.92
76583;BMP280;65462;52.148;7.940;2023-05-07T09:18:58;101051.19;;;18.04
76583;BMP280;65462;52.148;7.940;2023-05-07T09:21:24;101052.84;;;18.12
76583;BMP280;65462;52.148;7.940;2023-05-07T09:23:54;101044.19;;;18.22
76583;BMP280;65462;52.148;7.940;2023-05-07T09:26:24;101042.03;;;18.31
76583;BMP280;65462;52.148;7.940;2023-05-07T09:28:49;101041.75;;;18.39
76583;BMP280;65462;52.148;7.940;2023-05-07T09:31:15;101051.81;;;18.50
76583;BMP280;65462;52.148;7.940;2023-05-07T09:33:40;101048.84;;;18.58
76583;BMP280;65462;52.148;7.940;2023-05-07T09:36:07;101045.16;;;18.70
76583;BMP280;65462;52.148;7.940;2023-05-07T09:38:34;101047.94;;;18.80
76583;BMP280;65462;52.148;7.940;2023-05-07T09:41:10;101049.97;;;18.90
76583;BMP280;65462;52.148;7.940;2023-05-07T09:43:38;101053.13;;;18.99
76583;BMP280;65462;52.148;7.940;2023-05-07T09:46:14;101037.13;;;19.10
76583;BMP280;65462;52.148;7.940;2023-05-07T09:48:43;101042.19;;;19.18
76583;BMP280;65462;52.148;7.940;2023-05-07T09:51:14;101044.16;;;19.25
76583;BMP280;65462;52.148;7.940;2023-05-07T09:53:41;101053.03;;;19.32
76583;BMP280;65462;52.148;7.940;2023-05-07T09:56:07;101043.53;;;19.38
76583;BMP280;65462;52.148;7.940;2023-05-07T09:58:33;101042.03;;;19.45
76583;BMP280;65462;52.148;7.940;2023-05-07T10:01:02;101047.47;;;19.52
76583;BMP280;65462;52.148;7.940;2023-05-07T10:03:29;101047.50;;;19.59
76583;BMP280;65462;52.148;7.940;2023-05-07T10:05:58;101045.63;;;19.66
76583;BMP280;65462;52.148;7.940;2023-05-07T10:08:23;101054.50;;;19.74
76583;BMP280;65462;52.148;7.940;2023-05-07T10:10:49;101050.34;;;19.83
76583;BMP280;65462;52.148;7.940;2023-05-07T10:13:16;101050.41;;;19.90
76583;BMP280;65462;52.148;7.940;2023-05-07T10:15:42;101056.56;;;19.98
76583;BMP280;65462;52.148;7.940;2023-05-07T10:18:07;101055.84;;;20.04
76583;BMP280;65462;52.148;7.940;2023-05-07T10:20:36;101060.09;;;20.12
76583;BMP280;65462;52.148;7.940;2023-05-07T10:23:04;101057.81;;;20.18
76583;BMP280;65462;52.148;7.940;2023-05-07T10:25:30;101057.09;;;20.28
76583;BMP280;65462;52.148;7.940;2023-05-07T10:28:00;101054.44;;;20.35
76583;BMP280;65462;52.148;7.940;2023-05-07T10:31:14;101059.88;;;20.49
76583;BMP280;65462;52.148;7.940;2023-05-07T10:33:45;101051.47;;;20.61
76583;BMP280;65462;52.148;7.940;2023-05-07T10:36:12;101051.09;;;20.73
76583;BMP280;65462;52.148;7.940;2023-05-07T10:38:37;101052.66;;;20.81
76583;BMP280;65462;52.148;7.940;2023-05-07T10:41:04;101059.97;;;20.88
76583;BMP280;65462;52.148;7.940;2023-05-07T10:43:42;101056.09;;;20.92
76583;BMP280;65462;52.148;7.940;2023-05-07T10:46:17;101055.75;;;21.01
76583;BMP280;65462;52.148;7.940;2023-05-07T10:51:32;101065.34;;;21.12
76583;BMP280;65462;52.148;7.940;2023-05-07T10:56:36;101060.00;;;21.23
76583;BMP280;65462;52.148;7.940;2023-05-07T11:02:00;101057.28;;;21.40
76583;BMP280;65462;52.148;7.940;2023-05-07T11:04:31;101053.44;;;21.48
76583;BMP280;65462;52.148;7.940;2023-05-07T11:15:11;101044.16;;;21.85
76583;BMP280;65462;52.148;7.940;2023-05-07T11:20:19;101048.69;;;22.02
76583;BMP280;65462;52.148;7.940;2023-05-07T11:22:45;101056.34;;;22.10
76583;BMP280;65462;52.148;7.940;2023-05-07T11:25:10;101055.94;;;22.15
76583;BMP280;65462;52.148;7.940;2023-05-07T11:27:42;101049.41;;;22.20
76583;BMP280;65462;52.148;7.940;2023-05-07T11:30:08;101047.81;;;22.26
76583;BMP280;65462;52.148;7.940;2023-05-07T11:32:33;101052.00;;;22.34
76583;BMP280;65462;52.148;7.940;2023-05-07T11:34:59;101051.22;;;22.37
76583;BMP280;65462;52.148;7.940;2023-05-07T11:37:26;101048.91;;;22.42
76583;BMP280;65462;52.148;7.940;2023-05-07T11:40:05;101053.47;;;22.49
76583;BMP280;65462;52.148;7.940;2023-05-07T11:42:38;101055.38;;;22.55
76583;BMP280;65462;52.148;7.940;2023-05-07T11:45:06;101054.16;;;22.60
76583;BMP280;65462;52.148;7.940;2023-05-07T11:47:32;101048.72;;;22.67
76583;BMP280;65462;52.148;7.940;2023-05-07T11:50:04;101039.41;;;22.75
76583;BMP280;65462;52.148;7.940;2023-05-07T11:52:30;101039.81;;;22.77
76583;BMP280;65462;52.148;7.940;2023-05-07T11:54:57;101044.75;;;22.86
76583;BMP280;65462;52.148;7.940;2023-05-07T11:57:24;101041.25;;;22.92
76583;BMP280;65462;52.148;7.940;2023-05-07T11:59:53;101035.03;;;22.95
76583;BMP280;65462;52.148;7.940;2023-05-07T12:02:19;101045.78;;;23.02
76583;BMP280;65462;52.148;7.940;2023-05-07T12:04:44;101037.63;;;23.09
76583;BMP280;65462;52.148;7.940;2023-05-07T12:07:13;101037.53;;;23.20
76583;BMP280;65462;52.148;7.940;2023-05-07T12:09:39;101036.63;;;23.30
76583;BMP280;65462;52.148;7.940;2023-05-07T12:12:05;101035.03;;;23.39
76583;BMP280;65462;52.148;7.940;2023-05-07T12:14:30;101034.13;;;23.49
76583;BMP280;65462;52.148;7.940;2023-05-07T12:16:56;101038.00;;;23.52
76583;BMP280;65462;52.148;7.940;2023-05-07T12:19:22;101033.25;;;23.59
76583;BMP280;65462;52.148;7.940;2023-05-07T12:21:47;101039.75;;;23.65
76583;BMP280;65462;52.148;7.940;2023-05-07T12:24:14;101036.22;;;23.72
76583;BMP280;65462;52.148;7.940;2023-05-07T12:26:40;101036.16;;;23.75
76583;BMP280;65462;52.148;7.940;2023-05-07T12:29:06;101025.38;;;23.75
76583;BMP280;65462;52.148;7.940;2023-05-07T12:31:31;101044.63;;;23.77
76583;BMP280;65462;52.148;7.940;2023-05-07T12:33:56;101037.63;;;23.83
76583;BMP280;65462;52.148;7.940;2023-05-07T12:36:22;101041.44;;;23.86
76583;BMP280;65462;52.148;7.940;2023-05-07T12:38:49;101048.69;;;23.93
76583;BMP280;65462;52.148;7.940;2023-05-07T12:41:15;101046.00;;;23.93
76583;BMP280;65462;52.148;7.940;2023-05-07T12:43:44;101043.63;;;23.95
76583;BMP280;65462;52.148;7.940;2023-05-07T12:46:09;101049.78;;;23.99
76583;BMP280;65462;52.148;7.940;2023-05-07T12:48:38;101055.13;;;24.02
76583;BMP280;65462;52.148;7.940;2023-05-07T12:51:05;101054.31;;;24.05
76583;BMP280;65462;52.148;7.940;2023-05-07T12:53:31;101055.44;;;24.08
76583;BMP280;65462;52.148;7.940;2023-05-07T12:55:58;101063.09;;;24.13
76583;BMP280;65462;52.148;7.940;2023-05-07T12:58:30;101065.44;;;24.11
76583;BMP280;65462;52.148;7.940;2023-05-07T13:01:00;101061.25;;;24.06
76583;BMP280;65462;52.148;7.940;2023-05-07T13:05:51;101060.53;;;24.02
76583;BMP280;65462;52.148;7.940;2023-05-07T13:08:33;101052.38;;;24.06
76583;BMP280;65462;52.148;7.940;2023-05-07T13:11:01;101054.28;;;24.09
76583;BMP280;65462;52.148;7.940;2023-05-07T13:13:30;101052.75;;;24.08
76583;BMP280;65462;52.148;7.940;2023-05-07T13:15:56;101051.16;;;24.10
76583;BMP280;65462;52.148;7.940;2023-05-07T13:18:21;101056.19;;;24.12
76583;BMP280;65462;52.148;7.940;2023-05-07T13:20:46;101057.78;;;24.06
76583;BMP280;65462;52.148;7.940;2023-05-07T13:23:12;101052.88;;;23.97
76583;BMP280;65462;52.148;7.940;2023-05-07T13:25:37;101053.06;;;23.83
76583;BMP280;65462;52.148;7.940;2023-05-07T13:28:02;101042.56;;;23.55
76583;BMP280;65462;52.148;7.940;2023-05-07T13:30:29;101053.84;;;23.46
76583;BMP280;65462;52.148;7.940;2023-05-07T13:32:55;101044.69;;;23.33
76583;BMP280;65462;52.148;7.940;2023-05-07T13:35:21;101046.75;;;23.22
76583;BMP280;65462;52.148;7.940;2023-05-07T13:37:46;101052.19;;;23.19
76583;BMP280;65462;52.148;7.940;2023-05-07T13:40:13;101043.34;;;23.18
76583;BMP280;65462;52.148;7.940;2023-05-07T13:42:38;101051.53;;;23.04
76583;BMP280;65462;52.148;7.940;2023-05-07T13:45:04;101053.22;;;22.88
76583;BMP280;65462;52.148;7.940;2023-05-07T13:47:30;101045.69;;;22.65
76583;BMP280;65462;52.148;7.940;2023-05-07T13:49:55;101054.19;;;22.56
76583;BMP280;65462;52.148;7.940;2023-05-07T13:52:21;101054.63;;;22.48
76583;BMP280;65462;52.148;7.940;2023-05-07T13:54:46;101057.69;;;22.53
76583;BMP280;65462;52.148;7.940;2023-05-07T13:57:11;101057.31;;;22.48
76583;BMP280;65462;52.148;7.940;2023-05-07T13:59:36;101054.66;;;22.41
76583;BMP280;65462;52.148;7.940;2023-05-07T14:02:02;101051.19;;;22.44
76583;BMP280;65462;52.148;7.940;2023-05-07T14:04:27;101059.72;;;22.35
76583;BMP280;65462;52.148;7.940;2023-05-07T14:06:52;101056.28;;;22.28
76583;BMP280;65462;52.148;7.940;2023-05-07T14:09:18;101059.78;;;22.25
76583;BMP280;65462;52.148;7.940;2023-05-07T14:11:43;101055.53;;;22.24
76583;BMP280;65462;52.148;7.940;2023-05-07T14:14:08;101065.16;;;22.18